Airville, Pennsylvania
Current Conditions -  °F | °C
As of 6:53 PM on Sunday 23 Nov 2014 (Local Time) from KLNS Reporting Station
Clear Clear  
Wind Chill: 38°   Ceiling: Unl
Heat Index: 41°   Visibility: 10mi
Dew Point: 28°   Wind: 5mph
Humidity: 60%   Direction: 90°E
Pressure: 30.07"   Gusts: NA
Location:  39.83°N, 76.41°W
Report Text: KLNS 232353Z 09004KT 10SM CLR 05/M02 A3007 RMK AO2 SLP185 T00501022 10128 20044 58008
Loading
Personal Weather Stations






























Interactive Weather Map New forecast layout! Learn more

10-Day Weather Forecast

Advertisements
Track Severe Weather on mobile